Time,TemperatureF,DewpointF,PressureIn,WindDirection,WindDirectionDegrees,WindSpeedMPH,WindSpeedGustMPH,Humidity,HourlyPrecipIn,Conditions,Clouds,dailyrainin,SolarRadiationWatts/m^2,SoftwareType,DateUTC
2013-09-04 00:11:00,59.0,42.0,-100.00,SE,137,0.0,3.0,53,0.00,,,0.00,0.000000,,2013-09-04 07:11:00,
2013-09-04 00:22:00,59.0,42.0,-100.00,SE,137,0.0,3.0,53,0.00,,,0.00,0.000000,,2013-09-04 07:22:00,
2013-09-04 00:32:00,59.0,42.0,-100.00,SE,137,0.0,3.0,53,0.00,,,0.00,0.000000,,2013-09-04 07:32:00,
2013-09-04 00:42:00,59.0,42.0,-100.00,SE,137,0.0,3.0,53,0.00,,,0.00,0.000000,,2013-09-04 07:42:00,
2013-09-04 01:12:00,57.0,41.0,-100.00,SE,143,1.0,5.0,55,0.00,,,0.00,0.000000,,2013-09-04 08:12:00,
2013-09-04 01:22:00,57.0,41.0,-100.00,SE,143,1.0,5.0,55,0.00,,,0.00,0.000000,,2013-09-04 08:22:00,
2013-09-04 01:32:00,57.0,41.0,-100.00,SE,143,1.0,5.0,55,0.00,,,0.00,0.000000,,2013-09-04 08:32:00,
2013-09-04 01:43:00,57.0,41.0,-100.00,SE,143,1.0,5.0,55,0.00,,,0.00,0.000000,,2013-09-04 08:43:00,
2013-09-04 02:11:00,55.0,40.0,-100.00,SSE,157,0.0,5.0,57,0.00,,,0.00,0.000000,,2013-09-04 09:11:00,
2013-09-04 02:22:00,55.0,40.0,-100.00,SSE,157,0.0,5.0,57,0.00,,,0.00,0.000000,,2013-09-04 09:22:00,
2013-09-04 02:33:00,55.0,40.0,-100.00,SSE,157,0.0,5.0,57,0.00,,,0.00,0.000000,,2013-09-04 09:33:00,
2013-09-04 02:43:00,55.0,40.0,-100.00,SSE,157,0.0,5.0,57,0.00,,,0.00,0.000000,,2013-09-04 09:43:00,
2013-09-04 03:12:00,55.0,41.0,-100.00,SE,136,0.0,3.0,59,0.00,,,0.00,0.000000,,2013-09-04 10:12:00,
2013-09-04 03:23:00,55.0,41.0,-100.00,SE,136,0.0,3.0,59,0.00,,,0.00,0.000000,,2013-09-04 10:23:00,
2013-09-04 03:32:00,55.0,41.0,-100.00,SE,136,0.0,3.0,59,0.00,,,0.00,0.000000,,2013-09-04 10:32:00,
2013-09-04 03:42:00,55.0,41.0,-100.00,SE,136,0.0,3.0,59,0.00,,,0.00,0.000000,,2013-09-04 10:42:00,
2013-09-04 04:12:00,54.0,40.0,-100.00,SSE,157,0.0,4.0,60,0.00,,,0.00,0.000000,,2013-09-04 11:12:00,
2013-09-04 04:22:00,54.0,40.0,-100.00,SSE,157,0.0,4.0,60,0.00,,,0.00,0.000000,,2013-09-04 11:22:00,
2013-09-04 04:32:00,54.0,40.0,-100.00,SSE,157,0.0,4.0,60,0.00,,,0.00,0.000000,,2013-09-04 11:32:00,
2013-09-04 04:42:00,54.0,40.0,-100.00,SSE,157,0.0,4.0,60,0.00,,,0.00,0.000000,,2013-09-04 11:42:00,
2013-09-04 06:21:00,50.0,40.0,-100.00,SE,134,0.0,0.0,69,0.00,,,0.00,0.000000,,2013-09-04 13:21:00,
2013-09-04 06:31:00,50.0,40.0,-100.00,SE,134,0.0,0.0,69,0.00,,,0.00,0.000000,,2013-09-04 13:31:00,
2013-09-04 07:11:00,51.0,42.0,-100.00,East,101,0.0,0.0,71,0.00,,,0.00,1.000000,,2013-09-04 14:11:00,
2013-09-04 07:21:00,51.0,42.0,-100.00,East,101,0.0,0.0,71,0.00,,,0.00,1.000000,,2013-09-04 14:21:00,
2013-09-04 07:32:00,51.0,42.0,-100.00,East,101,0.0,0.0,71,0.00,,,0.00,1.000000,,2013-09-04 14:32:00,
2013-09-04 07:42:00,51.0,42.0,-100.00,East,101,0.0,0.0,71,0.00,,,0.00,1.000000,,2013-09-04 14:42:00,
2013-09-04 08:12:00,51.0,41.0,-100.00,WSW,245,0.0,4.0,68,0.00,,,0.00,46.000000,,2013-09-04 15:12:00,
2013-09-04 08:22:00,51.0,41.0,-100.00,WSW,245,0.0,4.0,68,0.00,,,0.00,46.000000,,2013-09-04 15:22:00,
2013-09-04 08:33:00,51.0,41.0,-100.00,WSW,245,0.0,4.0,68,0.00,,,0.00,46.000000,,2013-09-04 15:33:00,
2013-09-04 09:12:00,59.0,43.0,-100.00,SW,236,0.0,3.0,55,-99.99,,,0.00,211.000000,,2013-09-04 16:12:00,
2013-09-04 09:23:00,59.0,43.0,-100.00,SW,236,0.0,3.0,55,-99.99,,,0.00,211.000000,,2013-09-04 16:23:00,
2013-09-04 09:34:00,59.0,43.0,-100.00,SW,236,0.0,3.0,55,-99.99,,,0.00,211.000000,,2013-09-04 16:34:00,
2013-09-04 10:13:00,68.0,46.0,-100.00,NW,309,0.0,3.0,46,0.00,,,0.00,427.000000,,2013-09-04 17:13:00,
2013-09-04 10:22:00,68.0,46.0,-100.00,NW,309,0.0,3.0,46,0.00,,,0.00,427.000000,,2013-09-04 17:22:00,
2013-09-04 10:34:00,68.0,46.0,-100.00,NW,309,0.0,3.0,46,0.00,,,0.00,427.000000,,2013-09-04 17:34:00,
2013-09-04 10:42:00,68.0,46.0,-100.00,NW,309,0.0,3.0,46,0.00,,,0.00,427.000000,,2013-09-04 17:42:00,
2013-09-04 11:12:00,77.0,45.0,-100.00,WSW,241,6.0,15.0,32,0.00,,,0.00,555.000000,,2013-09-04 18:12:00,
2013-09-04 11:21:00,77.0,45.0,-100.00,WSW,241,6.0,15.0,32,0.00,,,0.00,555.000000,,2013-09-04 18:21:00,
2013-09-04 11:32:00,77.0,45.0,-100.00,WSW,241,6.0,15.0,32,0.00,,,0.00,555.000000,,2013-09-04 18:32:00,
2013-09-04 11:42:00,77.0,45.0,-100.00,WSW,241,6.0,15.0,32,0.00,,,0.00,555.000000,,2013-09-04 18:42:00,
2013-09-04 12:11:00,79.0,42.0,-100.00,SW,222,6.0,20.0,27,0.00,,,0.00,621.000000,,2013-09-04 19:11:00,
2013-09-04 12:22:00,79.0,42.0,-100.00,SW,222,6.0,20.0,27,0.00,,,0.00,621.000000,,2013-09-04 19:22:00,
2013-09-04 12:32:00,79.0,42.0,-100.00,SW,222,6.0,20.0,27,0.00,,,0.00,621.000000,,2013-09-04 19:32:00,
2013-09-04 12:42:00,79.0,42.0,-100.00,SW,222,6.0,20.0,27,0.00,,,0.00,621.000000,,2013-09-04 19:42:00,
2013-09-04 13:11:00,80.0,43.0,-100.00,SSW,211,7.0,19.0,27,0.00,,,0.00,692.000000,,2013-09-04 20:11:00,
2013-09-04 13:22:00,80.0,43.0,-100.00,SSW,211,7.0,19.0,27,0.00,,,0.00,692.000000,,2013-09-04 20:22:00,
2013-09-04 13:32:00,80.0,43.0,-100.00,SSW,211,7.0,19.0,27,0.00,,,0.00,692.000000,,2013-09-04 20:32:00,
2013-09-04 13:43:00,80.0,43.0,-100.00,SSW,211,7.0,19.0,27,0.00,,,0.00,692.000000,,2013-09-04 20:43:00,
2013-09-04 14:11:00,79.0,44.0,-100.00,WNW,297,6.0,17.0,29,0.00,,,0.00,460.000000,,2013-09-04 21:11:00,
2013-09-04 14:22:00,79.0,44.0,-100.00,WNW,297,6.0,17.0,29,0.00,,,0.00,460.000000,,2013-09-04 21:22:00,
2013-09-04 14:34:00,79.0,44.0,-100.00,WNW,297,6.0,17.0,29,0.00,,,0.00,460.000000,,2013-09-04 21:34:00,
2013-09-04 14:44:00,79.0,44.0,-100.00,WNW,297,6.0,17.0,29,0.00,,,0.00,460.000000,,2013-09-04 21:44:00,
2013-09-04 15:14:00,80.0,43.0,-100.00,SSW,197,4.0,16.0,27,0.00,,,0.00,516.000000,,2013-09-04 22:14:00,
2013-09-04 15:23:00,80.0,43.0,-100.00,SSW,197,4.0,16.0,27,0.00,,,0.00,516.000000,,2013-09-04 22:23:00,
2013-09-04 15:33:00,80.0,43.0,-100.00,SSW,197,4.0,16.0,27,0.00,,,0.00,516.000000,,2013-09-04 22:33:00,
2013-09-04 15:43:00,80.0,43.0,-100.00,SSW,197,4.0,16.0,27,0.00,,,0.00,516.000000,,2013-09-04 22:43:00,
2013-09-04 16:13:00,81.0,43.0,-100.00,SW,220,8.0,23.0,26,0.00,,,0.00,718.000000,,2013-09-04 23:13:00,
2013-09-04 16:22:00,81.0,43.0,-100.00,SW,220,8.0,23.0,26,0.00,,,0.00,718.000000,,2013-09-04 23:22:00,
2013-09-04 16:34:00,81.0,43.0,-100.00,SW,220,8.0,23.0,26,0.00,,,0.00,718.000000,,2013-09-04 23:34:00,
2013-09-04 16:42:00,81.0,43.0,-100.00,SW,220,8.0,23.0,26,0.00,,,0.00,718.000000,,2013-09-04 23:42:00,
2013-09-04 17:11:00,81.0,44.0,-100.00,SSW,211,5.0,20.0,27,0.00,,,0.00,538.000000,,2013-09-05 00:11:00,
2013-09-04 17:22:00,81.0,44.0,-100.00,SSW,211,5.0,20.0,27,0.00,,,0.00,538.000000,,2013-09-05 00:22:00,
2013-09-04 17:32:00,81.0,44.0,-100.00,SSW,211,5.0,20.0,27,0.00,,,0.00,538.000000,,2013-09-05 00:32:00,
2013-09-04 17:42:00,81.0,44.0,-100.00,SSW,211,5.0,20.0,27,0.00,,,0.00,538.000000,,2013-09-05 00:42:00,
2013-09-04 18:11:00,76.0,43.0,-100.00,SW,230,8.0,19.0,31,0.00,,,0.00,304.000000,,2013-09-05 01:11:00,
2013-09-04 18:21:00,76.0,43.0,-100.00,SW,230,8.0,19.0,31,0.00,,,0.00,304.000000,,2013-09-05 01:21:00,
2013-09-04 18:32:00,76.0,43.0,-100.00,SW,230,8.0,19.0,31,0.00,,,0.00,304.000000,,2013-09-05 01:32:00,
2013-09-04 18:42:00,76.0,43.0,-100.00,SW,230,8.0,19.0,31,0.00,,,0.00,304.000000,,2013-09-05 01:42:00,
2013-09-04 19:11:00,74.0,45.0,-100.00,SW,216,7.0,23.0,35,0.00,,,0.00,128.000000,,2013-09-05 02:11:00,
2013-09-04 19:22:00,74.0,45.0,-100.00,SW,216,7.0,23.0,35,0.00,,,0.00,128.000000,,2013-09-05 02:22:00,
2013-09-04 19:32:00,74.0,45.0,-100.00,SW,216,7.0,23.0,35,0.00,,,0.00,128.000000,,2013-09-05 02:32:00,
2013-09-04 19:42:00,74.0,45.0,-100.00,SW,216,7.0,23.0,35,0.00,,,0.00,128.000000,,2013-09-05 02:42:00,
2013-09-04 20:11:00,70.0,45.0,-100.00,SW,215,5.0,18.0,40,0.00,,,0.00,15.000000,,2013-09-05 03:11:00,
2013-09-04 20:22:00,70.0,45.0,-100.00,SW,215,5.0,18.0,40,0.00,,,0.00,15.000000,,2013-09-05 03:22:00,
2013-09-04 20:34:00,70.0,45.0,-100.00,SW,215,5.0,18.0,40,0.00,,,0.00,15.000000,,2013-09-05 03:34:00,
2013-09-04 20:45:00,70.0,45.0,-100.00,SW,215,5.0,18.0,40,0.00,,,0.00,15.000000,,2013-09-05 03:45:00,
2013-09-04 21:13:00,68.0,45.0,-100.00,SSW,198,5.0,15.0,44,0.00,,,0.00,0.000000,,2013-09-05 04:13:00,
2013-09-04 21:24:00,68.0,45.0,-100.00,SSW,198,5.0,15.0,44,0.00,,,0.00,0.000000,,2013-09-05 04:24:00,
2013-09-04 21:34:00,68.0,45.0,-100.00,SSW,198,5.0,15.0,44,0.00,,,0.00,0.000000,,2013-09-05 04:34:00,
2013-09-04 21:44:00,68.0,45.0,-100.00,SSW,198,5.0,15.0,44,0.00,,,0.00,0.000000,,2013-09-05 04:44:00,
2013-09-04 22:12:00,65.0,44.0,-100.00,SW,223,6.0,13.0,46,0.00,,,0.00,0.000000,,2013-09-05 05:12:00,
2013-09-04 22:23:00,65.0,44.0,-100.00,SW,223,6.0,13.0,46,0.00,,,0.00,0.000000,,2013-09-05 05:23:00,
2013-09-04 22:34:00,65.0,44.0,-100.00,SW,223,6.0,13.0,46,0.00,,,0.00,0.000000,,2013-09-05 05:34:00,
2013-09-04 22:43:00,65.0,44.0,-100.00,SW,223,6.0,13.0,46,0.00,,,0.00,0.000000,,2013-09-05 05:43:00,
2013-09-04 23:12:00,65.0,44.0,-100.00,SW,228,6.0,17.0,46,0.00,,,0.00,0.000000,,2013-09-05 06:12:00,
2013-09-04 23:21:00,65.0,44.0,-100.00,SW,228,6.0,17.0,46,0.00,,,0.00,0.000000,,2013-09-05 06:21:00,
2013-09-04 23:32:00,65.0,44.0,-100.00,SW,228,6.0,17.0,46,0.00,,,0.00,0.000000,,2013-09-05 06:32:00,
2013-09-04 23:42:00,65.0,44.0,-100.00,SW,228,6.0,17.0,46,0.00,,,0.00,0.000000,,2013-09-05 06:42:00,